sensor_id;sensor_type;location;lat;lon;timestamp;pressure;altitude;pressure_sealevel;temperature;humidity
9774;BME280;4926;42.670;23.316;2023-02-02T00:01:49;94566.84;;;5.77;55.47
9774;BME280;4926;42.670;23.316;2023-02-02T00:04:17;94563.38;;;5.72;55.67
9774;BME280;4926;42.670;23.316;2023-02-02T00:06:44;94571.84;;;5.74;55.71
9774;BME280;4926;42.670;23.316;2023-02-02T00:09:14;94569.69;;;5.70;55.48
9774;BME280;4926;42.670;23.316;2023-02-02T00:11:41;94568.09;;;5.64;55.59
9774;BME280;4926;42.670;23.316;2023-02-02T00:14:10;94561.72;;;5.60;56.00
9774;BME280;4926;42.670;23.316;2023-02-02T00:16:40;94560.72;;;5.66;55.99
9774;BME280;4926;42.670;23.316;2023-02-02T00:19:12;94568.38;;;5.68;55.56
9774;BME280;4926;42.670;23.316;2023-02-02T00:21:42;94561.72;;;5.60;56.01
9774;BME280;4926;42.670;23.316;2023-02-02T00:24:10;94563.34;;;5.61;56.45
9774;BME280;4926;42.670;23.316;2023-02-02T00:26:40;94559.13;;;5.65;56.33
9774;BME280;4926;42.670;23.316;2023-02-02T00:29:13;94567.03;;;5.65;56.66
9774;BME280;4926;42.670;23.316;2023-02-02T00:31:40;94572.84;;;5.62;56.83
9774;BME280;4926;42.670;23.316;2023-02-02T00:34:09;94574.38;;;5.58;57.33
9774;BME280;4926;42.670;23.316;2023-02-02T00:36:35;94575.97;;;5.54;57.27
9774;BME280;4926;42.670;23.316;2023-02-02T00:39:02;94578.53;;;5.44;57.21
9774;BME280;4926;42.670;23.316;2023-02-02T00:41:29;94589.84;;;5.40;57.16
9774;BME280;4926;42.670;23.316;2023-02-02T00:44:00;94591.69;;;5.39;57.23
9774;BME280;4926;42.670;23.316;2023-02-02T00:46:44;94600.16;;;5.41;58.27
9774;BME280;4926;42.670;23.316;2023-02-02T00:49:13;94595.66;;;5.37;58.69
9774;BME280;4926;42.670;23.316;2023-02-02T00:51:39;94597.44;;;5.31;58.56
9774;BME280;4926;42.670;23.316;2023-02-02T00:54:09;94598.00;;;5.33;59.36
9774;BME280;4926;42.670;23.316;2023-02-02T00:56:38;94606.66;;;5.29;59.84
9774;BME280;4926;42.670;23.316;2023-02-02T00:59:06;94606.66;;;5.29;60.35
9774;BME280;4926;42.670;23.316;2023-02-02T01:01:38;94594.72;;;5.21;61.44
9774;BME280;4926;42.670;23.316;2023-02-02T01:04:05;94602.56;;;5.11;62.46
9774;BME280;4926;42.670;23.316;2023-02-02T01:06:39;94599.69;;;5.18;62.64
9774;BME280;4926;42.670;23.316;2023-02-02T01:09:06;94588.94;;;5.24;62.75
9774;BME280;4926;42.670;23.316;2023-02-02T01:11:34;94589.72;;;5.25;63.66
9774;BME280;4926;42.670;23.316;2023-02-02T01:14:01;94584.75;;;5.28;63.77
9774;BME280;4926;42.670;23.316;2023-02-02T01:16:29;94584.41;;;5.20;63.83
9774;BME280;4926;42.670;23.316;2023-02-02T01:19:01;94574.63;;;5.15;64.13
9774;BME280;4926;42.670;23.316;2023-02-02T01:21:27;94573.56;;;5.16;64.37
9774;BME280;4926;42.670;23.316;2023-02-02T01:23:54;94583.09;;;5.17;64.56
9774;BME280;4926;42.670;23.316;2023-02-02T01:26:22;94586.75;;;5.16;64.73
9774;BME280;4926;42.670;23.316;2023-02-02T01:28:49;94587.84;;;5.20;64.31
9774;BME280;4926;42.670;23.316;2023-02-02T01:31:18;94580.22;;;5.24;64.68
9774;BME280;4926;42.670;23.316;2023-02-02T01:33:50;94579.41;;;5.18;64.14
9774;BME280;4926;42.670;23.316;2023-02-02T01:36:19;94577.34;;;5.25;63.70
9774;BME280;4926;42.670;23.316;2023-02-02T01:38:47;94562.28;;;5.21;62.81
9774;BME280;4926;42.670;23.316;2023-02-02T01:41:24;94565.66;;;5.16;62.32
9774;BME280;4926;42.670;23.316;2023-02-02T01:43:56;94556.44;;;5.19;61.71
9774;BME280;4926;42.670;23.316;2023-02-02T01:46:25;94551.94;;;5.14;61.79
9774;BME280;4926;42.670;23.316;2023-02-02T01:48:57;94553.75;;;5.09;62.04
9774;BME280;4926;42.670;23.316;2023-02-02T01:51:29;94556.16;;;5.15;61.84
9774;BME280;4926;42.670;23.316;2023-02-02T01:53:58;94554.00;;;5.07;62.50
9774;BME280;4926;42.670;23.316;2023-02-02T01:56:29;94550.00;;;5.05;62.47
9774;BME280;4926;42.670;23.316;2023-02-02T01:58:58;94537.09;;;5.03;62.79
9774;BME280;4926;42.670;23.316;2023-02-02T02:01:26;94545.56;;;5.10;63.01
9774;BME280;4926;42.670;23.316;2023-02-02T02:03:55;94544.69;;;5.00;63.12
9774;BME280;4926;42.670;23.316;2023-02-02T02:06:24;94533.34;;;4.99;62.92
9774;BME280;4926;42.670;23.316;2023-02-02T02:08:53;94545.50;;;5.00;63.44
9774;BME280;4926;42.670;23.316;2023-02-02T02:11:21;94549.16;;;4.99;63.30
9774;BME280;4926;42.670;23.316;2023-02-02T02:13:51;94548.81;;;4.86;64.03
9774;BME280;4926;42.670;23.316;2023-02-02T02:16:47;94547.44;;;4.83;63.92
9774;BME280;4926;42.670;23.316;2023-02-02T02:19:39;94556.47;;;4.87;64.09
9774;BME280;4926;42.670;23.316;2023-02-02T02:22:35;94557.16;;;4.78;65.03
9774;BME280;4926;42.670;23.316;2023-02-02T02:25:44;94555.56;;;4.77;65.36
9774;BME280;4926;42.670;23.316;2023-02-02T02:34:41;94555.28;;;4.73;65.35
9774;BME280;4926;42.670;23.316;2023-02-02T02:37:13;94561.38;;;4.74;65.47
9774;BME280;4926;42.670;23.316;2023-02-02T02:39:46;94555.28;;;4.73;65.39
9774;BME280;4926;42.670;23.316;2023-02-02T02:42:19;94549.72;;;4.70;65.17
9774;BME280;4926;42.670;23.316;2023-02-02T02:44:48;94564.72;;;4.69;64.27
9774;BME280;4926;42.670;23.316;2023-02-02T02:47:16;94552.31;;;4.65;64.14
9774;BME280;4926;42.670;23.316;2023-02-02T02:49:47;94550.00;;;4.73;64.68
9774;BME280;4926;42.670;23.316;2023-02-02T02:52:14;94553.16;;;4.70;64.11
9774;BME280;4926;42.670;23.316;2023-02-02T02:54:49;94553.94;;;4.71;64.00
9774;BME280;4926;42.670;23.316;2023-02-02T02:57:37;94553.06;;;4.60;64.73
9774;BME280;4926;42.670;23.316;2023-02-02T03:00:15;94554.09;;;4.59;64.70
9774;BME280;4926;42.670;23.316;2023-02-02T03:02:52;94546.16;;;4.54;64.73
9774;BME280;4926;42.670;23.316;2023-02-02T03:05:31;94552.00;;;4.61;64.98
9774;BME280;4926;42.670;23.316;2023-02-02T03:08:05;94539.81;;;4.55;66.09
9774;BME280;4926;42.670;23.316;2023-02-02T03:10:34;94545.63;;;4.57;66.67
9774;BME280;4926;42.670;23.316;2023-02-02T03:13:08;94555.72;;;4.60;66.95
9774;BME280;4926;42.670;23.316;2023-02-02T03:15:36;94553.91;;;4.39;67.85
9774;BME280;4926;42.670;23.316;2023-02-02T03:18:07;94554.53;;;4.46;66.97
9774;BME280;4926;42.670;23.316;2023-02-02T03:20:34;94550.03;;;4.46;67.02
9774;BME280;4926;42.670;23.316;2023-02-02T03:23:03;94554.69;;;4.39;67.31
9774;BME280;4926;42.670;23.316;2023-02-02T03:25:30;94555.88;;;4.27;67.76
9774;BME280;4926;42.670;23.316;2023-02-02T03:27:57;94552.94;;;4.23;67.90
9774;BME280;4926;42.670;23.316;2023-02-02T03:30:24;94551.31;;;4.17;68.01
9774;BME280;4926;42.670;23.316;2023-02-02T03:32:53;94551.09;;;4.24;68.42
9774;BME280;4926;42.670;23.316;2023-02-02T03:35:21;94561.03;;;4.17;68.30
9774;BME280;4926;42.670;23.316;2023-02-02T03:37:49;94559.47;;;4.16;68.37
9774;BME280;4926;42.670;23.316;2023-02-02T03:40:18;94562.66;;;4.18;68.49
9774;BME280;4926;42.670;23.316;2023-02-02T03:42:51;94562.03;;;4.11;68.75
9774;BME280;4926;42.670;23.316;2023-02-02T03:45:18;94565.16;;;4.08;68.47
9774;BME280;4926;42.670;23.316;2023-02-02T03:47:44;94567.16;;;4.01;68.91
9774;BME280;4926;42.670;23.316;2023-02-02T03:50:17;94565.47;;;3.90;69.48
9774;BME280;4926;42.670;23.316;2023-02-02T03:52:45;94569.13;;;3.89;69.92
9774;BME280;4926;42.670;23.316;2023-02-02T03:55:11;94562.28;;;3.88;69.92
9774;BME280;4926;42.670;23.316;2023-02-02T03:57:39;94574.84;;;3.81;70.37
9774;BME280;4926;42.670;23.316;2023-02-02T04:00:10;94589.94;;;3.69;70.83
9774;BME280;4926;42.670;23.316;2023-02-02T04:02:44;94584.69;;;3.69;71.36
9774;BME280;4926;42.670;23.316;2023-02-02T04:05:14;94584.13;;;3.67;71.53
9774;BME280;4926;42.670;23.316;2023-02-02T04:07:40;94590.41;;;3.66;71.71
9774;BME280;4926;42.670;23.316;2023-02-02T04:10:10;94589.81;;;3.59;72.21
9774;BME280;4926;42.670;23.316;2023-02-02T04:12:36;94597.00;;;3.47;72.94
9774;BME280;4926;42.670;23.316;2023-02-02T04:15:04;94597.34;;;3.33;73.16
9774;BME280;4926;42.670;23.316;2023-02-02T04:17:31;94601.97;;;3.26;74.34
9774;BME280;4926;42.670;23.316;2023-02-02T04:19:58;94602.03;;;3.31;74.19
9774;BME280;4926;42.670;23.316;2023-02-02T04:22:25;94604.53;;;3.21;73.86
9774;BME280;4926;42.670;23.316;2023-02-02T04:24:54;94602.22;;;3.25;74.01
9774;BME280;4926;42.670;23.316;2023-02-02T04:27:24;94606.66;;;3.24;74.26
9774;BME280;4926;42.670;23.316;2023-02-02T04:29:57;94604.97;;;3.18;74.67
9774;BME280;4926;42.670;23.316;2023-02-02T04:32:25;94606.59;;;3.19;74.09
9774;BME280;4926;42.670;23.316;2023-02-02T04:34:52;94597.81;;;3.14;74.57
9774;BME280;4926;42.670;23.316;2023-02-02T04:37:19;94592.81;;;3.12;74.63
9774;BME280;4926;42.670;23.316;2023-02-02T04:39:47;94594.38;;;3.13;74.05
9774;BME280;4926;42.670;23.316;2023-02-02T04:42:16;94591.75;;;3.13;74.21
9774;BME280;4926;42.670;23.316;2023-02-02T04:44:44;94608.84;;;3.11;74.50
9774;BME280;4926;42.670;23.316;2023-02-02T04:47:11;94604.69;;;2.98;75.07
9774;BME280;4926;42.670;23.316;2023-02-02T04:49:38;94618.47;;;3.05;75.41
9774;BME280;4926;42.670;23.316;2023-02-02T04:52:06;94615.28;;;3.03;75.88
9774;BME280;4926;42.670;23.316;2023-02-02T04:54:33;94618.94;;;3.02;75.26
9774;BME280;4926;42.670;23.316;2023-02-02T04:57:00;94615.34;;;2.92;76.63
9774;BME280;4926;42.670;23.316;2023-02-02T04:59:27;94610.88;;;2.92;76.42
9774;BME280;4926;42.670;23.316;2023-02-02T05:01:57;94610.56;;;2.72;77.54
9774;BME280;4926;42.670;23.316;2023-02-02T05:04:24;94615.66;;;2.79;76.74
9774;BME280;4926;42.670;23.316;2023-02-02T05:06:55;94620.41;;;2.82;76.20
9774;BME280;4926;42.670;23.316;2023-02-02T05:09:22;94625.22;;;2.85;76.21
9774;BME280;4926;42.670;23.316;2023-02-02T05:11:51;94602.28;;;2.80;76.13
9774;BME280;4926;42.670;23.316;2023-02-02T05:14:18;94613.09;;;2.84;76.39
9774;BME280;4926;42.670;23.316;2023-02-02T05:16:45;94616.13;;;2.76;76.18
9774;BME280;4926;42.670;23.316;2023-02-02T05:19:13;94624.91;;;2.81;76.66
9774;BME280;4926;42.670;23.316;2023-02-02T05:21:41;94614.38;;;2.81;76.34
9774;BME280;4926;42.670;23.316;2023-02-02T05:24:09;94613.09;;;2.84;75.84
9774;BME280;4926;42.670;23.316;2023-02-02T05:26:37;94601.97;;;2.93;75.90
9774;BME280;4926;42.670;23.316;2023-02-02T05:29:04;94603.47;;;2.89;75.62
9774;BME280;4926;42.670;23.316;2023-02-02T05:31:33;94602.06;;;2.98;75.01
9774;BME280;4926;42.670;23.316;2023-02-02T05:34:00;94588.41;;;3.01;74.42
9774;BME280;4926;42.670;23.316;2023-02-02T05:36:28;94595.28;;;3.02;74.62
9774;BME280;4926;42.670;23.316;2023-02-02T05:38:54;94609.00;;;3.04;74.29
9774;BME280;4926;42.670;23.316;2023-02-02T05:41:21;94607.31;;;2.98;73.89
9774;BME280;4926;42.670;23.316;2023-02-02T05:43:48;94618.22;;;2.90;74.60
9774;BME280;4926;42.670;23.316;2023-02-02T05:46:15;94621.06;;;2.89;75.01
9774;BME280;4926;42.670;23.316;2023-02-02T05:48:41;94615.50;;;2.85;75.11
9774;BME280;4926;42.670;23.316;2023-02-02T05:51:11;94627.44;;;2.76;75.38
9774;BME280;4926;42.670;23.316;2023-02-02T05:53:41;94621.91;;;2.61;76.42
9774;BME280;4926;42.670;23.316;2023-02-02T05:56:15;94629.63;;;2.68;76.14
9774;BME280;4926;42.670;23.316;2023-02-02T05:58:42;94613.84;;;2.51;77.11
9774;BME280;4926;42.670;23.316;2023-02-02T06:01:11;94627.25;;;2.66;76.54
9774;BME280;4926;42.670;23.316;2023-02-02T06:03:38;94628.13;;;2.55;75.96
9774;BME280;4926;42.670;23.316;2023-02-02T06:06:07;94627.47;;;2.48;76.92
9774;BME280;4926;42.670;23.316;2023-02-02T06:08:34;94634.97;;;2.56;76.64
9774;BME280;4926;42.670;23.316;2023-02-02T06:11:08;94626.50;;;2.54;76.30
9774;BME280;4926;42.670;23.316;2023-02-02T06:13:43;94626.16;;;2.62;75.82
9774;BME280;4926;42.670;23.316;2023-02-02T06:16:10;94637.91;;;2.60;75.73
9774;BME280;4926;42.670;23.316;2023-02-02T06:18:37;94630.94;;;2.65;75.35
9774;BME280;4926;42.670;23.316;2023-02-02T06:21:05;94636.03;;;2.72;75.07
9774;BME280;4926;42.670;23.316;2023-02-02T06:23:32;94634.13;;;2.67;75.40
9774;BME280;4926;42.670;23.316;2023-02-02T06:25:59;94641.94;;;2.79;75.10
9774;BME280;4926;42.670;23.316;2023-02-02T06:28:29;94656.44;;;2.81;74.22
9774;BME280;4926;42.670;23.316;2023-02-02T06:30:56;94650.97;;;2.99;73.94
9774;BME280;4926;42.670;23.316;2023-02-02T06:33:28;94647.56;;;3.15;73.05
9774;BME280;4926;42.670;23.316;2023-02-02T06:36:00;94649.38;;;3.31;72.64
9774;BME280;4926;42.670;23.316;2023-02-02T06:38:27;94642.28;;;3.49;72.09
9774;BME280;4926;42.670;23.316;2023-02-02T06:40:54;94652.97;;;3.59;70.90
9774;BME280;4926;42.670;23.316;2023-02-02T06:43:23;94645.94;;;3.64;69.66
9774;BME280;4926;42.670;23.316;2023-02-02T06:45:51;94652.63;;;3.72;68.51
9774;BME280;4926;42.670;23.316;2023-02-02T06:48:18;94629.13;;;3.87;69.00
9774;BME280;4926;42.670;23.316;2023-02-02T06:50:45;94632.94;;;3.96;68.11
9774;BME280;4926;42.670;23.316;2023-02-02T06:53:11;94635.19;;;4.04;65.99
9774;BME280;4926;42.670;23.316;2023-02-02T06:55:41;94622.88;;;4.09;64.68
9774;BME280;4926;42.670;23.316;2023-02-02T06:58:09;94598.81;;;4.27;61.51
9774;BME280;4926;42.670;23.316;2023-02-02T07:00:41;94621.06;;;4.58;60.10
9774;BME280;4926;42.670;23.316;2023-02-02T07:03:09;94617.06;;;4.82;59.41
9774;BME280;4926;42.670;23.316;2023-02-02T07:05:36;94617.97;;;4.93;59.82
9774;BME280;4926;42.670;23.316;2023-02-02T07:08:04;94620.44;;;5.04;59.25
9774;BME280;4926;42.670;23.316;2023-02-02T07:10:30;94611.00;;;5.13;58.42
9774;BME280;4926;42.670;23.316;2023-02-02T07:12:57;94609.50;;;5.22;58.15
9774;BME280;4926;42.670;23.316;2023-02-02T07:15:24;94605.38;;;5.31;57.67
9774;BME280;4926;42.670;23.316;2023-02-02T07:17:53;94594.06;;;5.41;57.15
9774;BME280;4926;42.670;23.316;2023-02-02T07:20:21;94594.91;;;5.46;57.56
9774;BME280;4926;42.670;23.316;2023-02-02T07:22:48;94610.28;;;5.54;57.15
9774;BME280;4926;42.670;23.316;2023-02-02T07:25:15;94609.81;;;5.62;56.98
9774;BME280;4926;42.670;23.316;2023-02-02T07:27:41;94593.38;;;5.55;57.05
9774;BME280;4926;42.670;23.316;2023-02-02T07:30:11;94613.00;;;5.69;56.77
9774;BME280;4926;42.670;23.316;2023-02-02T07:32:38;94613.31;;;5.73;57.24
9774;BME280;4926;42.670;23.316;2023-02-02T07:35:07;94615.91;;;5.68;57.18
9774;BME280;4926;42.670;23.316;2023-02-02T07:37:35;94610.41;;;5.75;56.70
9774;BME280;4926;42.670;23.316;2023-02-02T07:40:04;94616.78;;;5.79;56.72
9774;BME280;4926;42.670;23.316;2023-02-02T07:42:30;94619.41;;;5.79;56.90
9774;BME280;4926;42.670;23.316;2023-02-02T07:44:57;94617.16;;;5.97;56.88
9774;BME280;4926;42.670;23.316;2023-02-02T07:47:24;94596.31;;;6.01;56.63
9774;BME280;4926;42.670;23.316;2023-02-02T07:49:51;94594.00;;;6.14;56.41
9774;BME280;4926;42.670;23.316;2023-02-02T07:52:17;94590.06;;;6.22;56.17
9774;BME280;4926;42.670;23.316;2023-02-02T07:54:48;94574.78;;;6.39;55.20
9774;BME280;4926;42.670;23.316;2023-02-02T07:57:15;94564.53;;;6.52;54.50
9774;BME280;4926;42.670;23.316;2023-02-02T07:59:42;94565.66;;;7.07;53.50
9774;BME280;4926;42.670;23.316;2023-02-02T08:02:09;94564.06;;;7.26;53.14
9774;BME280;4926;42.670;23.316;2023-02-02T08:04:35;94552.06;;;7.73;51.55
9774;BME280;4926;42.670;23.316;2023-02-02T08:07:02;94538.03;;;8.42;50.83
9774;BME280;4926;42.670;23.316;2023-02-02T08:09:29;94529.84;;;8.82;49.55
9774;BME280;4926;42.670;23.316;2023-02-02T08:11:59;94518.41;;;9.49;49.48
9774;BME280;4926;42.670;23.316;2023-02-02T08:14:27;94521.00;;;9.82;50.02
9774;BME280;4926;42.670;23.316;2023-02-02T08:16:54;94509.19;;;10.17;48.87
9774;BME280;4926;42.670;23.316;2023-02-02T08:19:20;94509.63;;;10.24;49.02
9774;BME280;4926;42.670;23.316;2023-02-02T08:21:49;94503.72;;;10.27;48.54
9774;BME280;4926;42.670;23.316;2023-02-02T08:24:15;94495.91;;;9.41;49.03
9774;BME280;4926;42.670;23.316;2023-02-02T08:26:42;94511.13;;;8.63;51.44
9774;BME280;4926;42.670;23.316;2023-02-02T08:29:13;94518.47;;;8.81;50.95
9774;BME280;4926;42.670;23.316;2023-02-02T08:31:42;94511.22;;;8.53;51.14
9774;BME280;4926;42.670;23.316;2023-02-02T08:34:12;94501.81;;;9.04;50.69
9774;BME280;4926;42.670;23.316;2023-02-02T08:36:39;94498.94;;;8.96;50.44
9774;BME280;4926;42.670;23.316;2023-02-02T08:39:10;94505.91;;;8.87;49.95
9774;BME280;4926;42.670;23.316;2023-02-02T08:41:40;94503.69;;;8.65;50.28
9774;BME280;4926;42.670;23.316;2023-02-02T08:44:11;94509.41;;;8.44;50.99
9774;BME280;4926;42.670;23.316;2023-02-02T08:46:39;94502.59;;;8.28;51.78
9774;BME280;4926;42.670;23.316;2023-02-02T08:49:09;94503.59;;;8.37;51.37
9774;BME280;4926;42.670;23.316;2023-02-02T08:51:38;94490.94;;;8.29;51.49
9774;BME280;4926;42.670;23.316;2023-02-02T08:54:06;94483.72;;;8.39;51.59
9774;BME280;4926;42.670;23.316;2023-02-02T08:56:35;94485.09;;;8.22;51.82
9774;BME280;4926;42.670;23.316;2023-02-02T08:59:05;94476.19;;;8.03;51.67
9774;BME280;4926;42.670;23.316;2023-02-02T09:01:33;94502.47;;;7.89;52.26
9774;BME280;4926;42.670;23.316;2023-02-02T09:04:01;94504.38;;;7.83;52.93
9774;BME280;4926;42.670;23.316;2023-02-02T09:06:31;94505.41;;;7.82;53.35
9774;BME280;4926;42.670;23.316;2023-02-02T09:09:00;94509.16;;;7.76;53.53
9774;BME280;4926;42.670;23.316;2023-02-02T09:11:28;94514.03;;;7.34;54.96
9774;BME280;4926;42.670;23.316;2023-02-02T09:14:00;94512.44;;;6.88;57.33
9774;BME280;4926;42.670;23.316;2023-02-02T09:16:28;94516.16;;;7.02;57.51
9774;BME280;4926;42.670;23.316;2023-02-02T09:18:56;94526.22;;;7.15;57.92
9774;BME280;4926;42.670;23.316;2023-02-02T09:21:22;94524.38;;;7.01;58.84
9774;BME280;4926;42.670;23.316;2023-02-02T09:23:50;94539.88;;;6.37;61.78
9774;BME280;4926;42.670;23.316;2023-02-02T09:26:20;94545.44;;;6.35;62.80
9774;BME280;4926;42.670;23.316;2023-02-02T09:28:48;94556.25;;;6.24;63.63
9774;BME280;4926;42.670;23.316;2023-02-02T09:31:16;94553.44;;;5.84;65.38
9774;BME280;4926;42.670;23.316;2023-02-02T09:33:43;94551.00;;;5.77;66.44
9774;BME280;4926;42.670;23.316;2023-02-02T09:36:16;94543.56;;;6.31;65.13
9774;BME280;4926;42.670;23.316;2023-02-02T09:38:43;94542.53;;;5.75;65.91
9774;BME280;4926;42.670;23.316;2023-02-02T09:44:16;94532.91;;;6.06;65.94
9774;BME280;4926;42.670;23.316;2023-02-02T09:46:55;94551.50;;;6.26;65.89
9774;BME280;4926;42.670;23.316;2023-02-02T09:49:30;94543.28;;;6.12;65.53
9774;BME280;4926;42.670;23.316;2023-02-02T09:52:11;94533.63;;;5.86;66.69
9774;BME280;4926;42.670;23.316;2023-02-02T09:54:44;94539.19;;;5.90;67.08
9774;BME280;4926;42.670;23.316;2023-02-02T09:57:15;94525.34;;;6.24;66.14
9774;BME280;4926;42.670;23.316;2023-02-02T09:59:45;94525.34;;;6.34;64.75
9774;BME280;4926;42.670;23.316;2023-02-02T10:02:16;94524.81;;;6.37;65.00
9774;BME280;4926;42.670;23.316;2023-02-02T10:04:48;94524.31;;;6.45;64.97
9774;BME280;4926;42.670;23.316;2023-02-02T10:07:22;94524.53;;;6.34;65.31
9774;BME280;4926;42.670;23.316;2023-02-02T10:09:56;94501.34;;;6.61;64.54
9774;BME280;4926;42.670;23.316;2023-02-02T10:12:32;94514.28;;;6.88;62.08
9774;BME280;4926;42.670;23.316;2023-02-02T10:15:05;94478.03;;;7.13;58.11
9774;BME280;4926;42.670;23.316;2023-02-02T10:17:43;94479.56;;;7.44;57.70
9774;BME280;4926;42.670;23.316;2023-02-02T10:20:20;94469.16;;;7.73;55.26
9774;BME280;4926;42.670;23.316;2023-02-02T10:22:49;94450.81;;;7.86;54.56
9774;BME280;4926;42.670;23.316;2023-02-02T10:25:16;94445.69;;;8.05;53.82
9774;BME280;4926;42.670;23.316;2023-02-02T10:27:52;94445.84;;;8.29;53.35
9774;BME280;4926;42.670;23.316;2023-02-02T10:30:28;94425.53;;;8.53;51.63
9774;BME280;4926;42.670;23.316;2023-02-02T10:33:05;94430.50;;;8.59;51.87
9774;BME280;4926;42.670;23.316;2023-02-02T10:35:37;94423.50;;;8.73;50.36
9774;BME280;4926;42.670;23.316;2023-02-02T10:38:15;94398.22;;;8.81;50.41
9774;BME280;4926;42.670;23.316;2023-02-02T10:40:56;94404.75;;;8.93;50.03
9774;BME280;4926;42.670;23.316;2023-02-02T10:44:00;94405.22;;;9.00;50.23
9774;BME280;4926;42.670;23.316;2023-02-02T10:46:32;94379.44;;;9.01;49.77
9774;BME280;4926;42.670;23.316;2023-02-02T10:49:15;94358.72;;;9.03;49.97
9774;BME280;4926;42.670;23.316;2023-02-02T10:51:48;94355.78;;;9.04;49.64
9774;BME280;4926;42.670;23.316;2023-02-02T10:54:28;94348.38;;;9.01;49.35
9774;BME280;4926;42.670;23.316;2023-02-02T10:56:59;94348.16;;;8.98;49.81
9774;BME280;4926;42.670;23.316;2023-02-02T10:59:31;94328.50;;;8.99;49.24
9774;BME280;4926;42.670;23.316;2023-02-02T11:02:00;94336.41;;;9.04;49.19
9774;BME280;4926;42.670;23.316;2023-02-02T11:04:29;94337.88;;;9.15;49.26
9774;BME280;4926;42.670;23.316;2023-02-02T11:07:13;94312.63;;;8.94;48.59
9774;BME280;4926;42.670;23.316;2023-02-02T11:09:46;94327.03;;;8.88;48.96
9774;BME280;4926;42.670;23.316;2023-02-02T11:12:18;94319.59;;;8.90;48.39
9774;BME280;4926;42.670;23.316;2023-02-02T11:14:50;94333.31;;;8.97;48.67
9774;BME280;4926;42.670;23.316;2023-02-02T11:17:19;94321.22;;;8.86;48.75
9774;BME280;4926;42.670;23.316;2023-02-02T11:19:47;94311.09;;;8.88;48.92
9774;BME280;4926;42.670;23.316;2023-02-02T11:22:26;94318.38;;;9.01;48.32
9774;BME280;4926;42.670;23.316;2023-02-02T11:24:56;94316.81;;;9.00;48.21
9774;BME280;4926;42.670;23.316;2023-02-02T11:27:26;94313.69;;;8.93;48.44
9774;BME280;4926;42.670;23.316;2023-02-02T11:29:57;94300.31;;;9.03;48.64
9774;BME280;4926;42.670;23.316;2023-02-02T11:32:27;94308.66;;;9.15;48.09
9774;BME280;4926;42.670;23.316;2023-02-02T11:35:13;94299.47;;;9.08;48.26
9774;BME280;4926;42.670;23.316;2023-02-02T11:37:52;94285.78;;;9.19;48.23
9774;BME280;4926;42.670;23.316;2023-02-02T11:40:27;94269.91;;;9.14;47.61
9774;BME280;4926;42.670;23.316;2023-02-02T11:42:58;94288.66;;;9.23;48.09
9774;BME280;4926;42.670;23.316;2023-02-02T11:45:30;94275.81;;;9.30;47.90
9774;BME280;4926;42.670;23.316;2023-02-02T11:48:07;94270.28;;;9.26;48.16
9774;BME280;4926;42.670;23.316;2023-02-02T11:50:44;94271.53;;;9.34;47.81
9774;BME280;4926;42.670;23.316;2023-02-02T11:53:20;94273.91;;;9.35;48.01
9774;BME280;4926;42.670;23.316;2023-02-02T11:55:49;94261.97;;;9.33;47.82
9774;BME280;4926;42.670;23.316;2023-02-02T11:58:22;94259.25;;;9.38;48.12
9774;BME280;4926;42.670;23.316;2023-02-02T12:00:58;94266.28;;;9.47;47.79
9774;BME280;4926;42.670;23.316;2023-02-02T12:03:28;94268.38;;;9.50;47.86
9774;BME280;4926;42.670;23.316;2023-02-02T12:05:56;94270.19;;;9.55;47.90
9774;BME280;4926;42.670;23.316;2023-02-02T12:08:23;94263.00;;;9.55;47.55
9774;BME280;4926;42.670;23.316;2023-02-02T12:11:03;94257.56;;;9.65;47.40
9774;BME280;4926;42.670;23.316;2023-02-02T12:13:47;94267.66;;;9.63;47.52
9774;BME280;4926;42.670;23.316;2023-02-02T12:16:29;94262.72;;;9.75;47.75
9774;BME280;4926;42.670;23.316;2023-02-02T12:19:16;94257.31;;;9.80;47.43
9774;BME280;4926;42.670;23.316;2023-02-02T12:21:54;94274.34;;;9.79;48.35
9774;BME280;4926;42.670;23.316;2023-02-02T12:24:28;94259.56;;;9.73;48.01
9774;BME280;4926;42.670;23.316;2023-02-02T12:27:09;94265.28;;;9.80;48.38
9774;BME280;4926;42.670;23.316;2023-02-02T12:29:59;94264.88;;;9.73;47.39
9774;BME280;4926;42.670;23.316;2023-02-02T12:32:44;94257.88;;;9.59;45.87
9774;BME280;4926;42.670;23.316;2023-02-02T12:35:31;94263.56;;;9.52;45.47
9774;BME280;4926;42.670;23.316;2023-02-02T12:38:07;94255.22;;;9.40;45.11
9774;BME280;4926;42.670;23.316;2023-02-02T12:40:49;94257.97;;;9.35;45.53
9774;BME280;4926;42.670;23.316;2023-02-02T12:43:32;94249.84;;;9.27;45.61
9774;BME280;4926;42.670;23.316;2023-02-02T12:49:15;94257.66;;;9.18;46.09
9774;BME280;4926;42.670;23.316;2023-02-02T12:52:07;94251.47;;;9.04;46.83
9774;BME280;4926;42.670;23.316;2023-02-02T12:54:48;94257.31;;;9.01;47.18
9774;BME280;4926;42.670;23.316;2023-02-02T12:57:25;94255.75;;;9.00;47.53
9774;BME280;4926;42.670;23.316;2023-02-02T13:00:21;94245.66;;;9.02;46.89
9774;BME280;4926;42.670;23.316;2023-02-02T13:03:02;94254.00;;;8.90;46.96
9774;BME280;4926;42.670;23.316;2023-02-02T13:05:47;94256.38;;;8.92;46.77
9774;BME280;4926;42.670;23.316;2023-02-02T13:08:22;94262.88;;;8.81;47.55
9774;BME280;4926;42.670;23.316;2023-02-02T13:10:54;94254.28;;;8.89;47.66
9774;BME280;4926;42.670;23.316;2023-02-02T13:13:25;94252.59;;;8.98;47.32
9774;BME280;4926;42.670;23.316;2023-02-02T13:16:05;94253.66;;;8.97;47.40
9774;BME280;4926;42.670;23.316;2023-02-02T13:18:35;94252.06;;;8.96;47.08
9774;BME280;4926;42.670;23.316;2023-02-02T13:21:06;94257.31;;;9.01;47.17
9774;BME280;4926;42.670;23.316;2023-02-02T13:23:39;94262.19;;;8.94;47.41
9774;BME280;4926;42.670;23.316;2023-02-02T13:26:11;94253.03;;;9.05;47.60
9774;BME280;4926;42.670;23.316;2023-02-02T13:28:45;94243.22;;;9.06;47.47
9774;BME280;4926;42.670;23.316;2023-02-02T13:31:19;94249.47;;;9.15;47.61
9774;BME280;4926;42.670;23.316;2023-02-02T13:33:53;94247.56;;;9.20;47.22
9774;BME280;4926;42.670;23.316;2023-02-02T13:36:27;94243.06;;;9.16;47.23
9774;BME280;4926;42.670;23.316;2023-02-02T13:39:02;94239.59;;;9.20;46.76
9774;BME280;4926;42.670;23.316;2023-02-02T13:41:38;94242.41;;;9.05;45.78
9774;BME280;4926;42.670;23.316;2023-02-02T13:44:08;94242.75;;;8.98;46.02
9774;BME280;4926;42.670;23.316;2023-02-02T13:46:49;94230.50;;;8.79;46.48
9774;BME280;4926;42.670;23.316;2023-02-02T13:49:23;94242.66;;;8.85;46.69
9774;BME280;4926;42.670;23.316;2023-02-02T13:52:11;94254.75;;;8.72;46.96
9774;BME280;4926;42.670;23.316;2023-02-02T13:55:22;94259.94;;;8.59;47.91
9774;BME280;4926;42.670;23.316;2023-02-02T13:58:20;94258.22;;;8.68;47.88